Time;durP1;ratioP1;P1;durP2;ratioP2;P2;SDS_P1;SDS_P2;PMS_P1;PMS_P2;Temp;Humidity;BMP_temperature;BMP_pressure;BME280_temperature;BME280_humidity;BME280_pressure;Samples;Min_cycle;Max_cycle;Signal;HPM_P1;HPM_P2
2022/11/16 00:01:17;;;;;;;20.25;13.18;;;;;;;;;;5020488;28;20528;-73
2022/11/16 00:03:43;;;;;;;19.67;12.82;;;;;;;;;;5019940;28;20054;-72
2022/11/16 01:30:17;;;;;;;21.10;14.25;;;;;;;;;;5012147;28;20512;-73
2022/11/16 01:32:43;;;;;;;19.65;13.77;;;;;;;;;;5023840;28;20050;-74
2022/11/16 01:35:13;;;;;;;20.55;14.65;;;;;;;;;;5023480;28;20054;-73
2022/11/16 01:37:39;;;;;;;22.15;14.98;;;;;;;;;;5005425;28;20517;-69
2022/11/16 01:40:06;;;;;;;19.33;13.80;;;;;;;;;;5020306;28;20056;-73
2022/11/16 01:42:33;;;;;;;20.02;14.27;;;;;;;;;;5023796;28;20516;-73
2022/11/16 01:45:02;;;;;;;19.83;13.45;;;;;;;;;;5005365;28;20544;-73
2022/11/16 01:47:28;;;;;;;22.60;15.73;;;;;;;;;;5022567;28;20053;-70
2022/11/16 01:50:07;;;;;;;18.15;13.88;;;;;;;;;;5016464;28;20050;-73
2022/11/16 01:52:35;;;;;;;21.92;14.55;;;;;;;;;;5023294;28;20050;-74
2022/11/16 01:55:02;;;;;;;23.45;15.18;;;;;;;;;;5005909;28;20520;-74
2022/11/16 01:57:34;;;;;;;21.48;13.60;;;;;;;;;;5021757;28;20169;-73
2022/11/16 02:00:01;;;;;;;22.33;14.95;;;;;;;;;;5020882;28;20112;-73
2022/11/16 02:02:28;;;;;;;23.55;15.32;;;;;;;;;;5020647;28;20049;-71
2022/11/16 02:04:55;;;;;;;19.30;14.90;;;;;;;;;;5022348;28;20542;-72
2022/11/16 02:10:44;;;;;;;20.48;14.68;;;;;;;;;;5021302;28;20054;-74
2022/11/16 02:13:17;;;;;;;23.40;14.73;;;;;;;;;;5023484;28;20054;-70
2022/11/16 02:15:46;;;;;;;21.38;15.02;;;;;;;;;;5017533;28;20054;-73
2022/11/16 02:18:15;;;;;;;19.13;14.25;;;;;;;;;;5022789;28;20065;-70
2022/11/16 02:20:42;;;;;;;18.65;14.00;;;;;;;;;;5019453;28;20504;-72
2022/11/16 02:23:08;;;;;;;20.83;13.70;;;;;;;;;;5019047;28;20510;-74
2022/11/16 02:25:53;;;;;;;20.05;14.30;;;;;;;;;;5021948;28;20652;-73
2022/11/16 02:28:20;;;;;;;19.88;14.25;;;;;;;;;;5016937;28;20050;-70
2022/11/16 02:30:47;;;;;;;20.15;13.63;;;;;;;;;;5011071;28;20050;-74
2022/11/16 02:33:17;;;;;;;18.88;13.40;;;;;;;;;;5009732;28;20085;-73
2022/11/16 02:35:48;;;;;;;19.52;13.45;;;;;;;;;;5021532;28;20053;-72
2022/11/16 02:38:19;;;;;;;17.35;12.32;;;;;;;;;;5022887;28;20625;-74
2022/11/16 02:40:48;;;;;;;19.55;13.52;;;;;;;;;;5022326;28;20054;-75
2022/11/16 02:43:19;;;;;;;19.92;13.27;;;;;;;;;;5023271;28;20456;-74
2022/11/16 02:45:48;;;;;;;16.67;12.50;;;;;;;;;;5022022;28;20042;-74
2022/11/16 02:48:26;;;;;;;19.58;13.48;;;;;;;;;;5017241;28;20923;-73
2022/11/16 02:50:52;;;;;;;18.77;13.93;;;;;;;;;;5021731;28;20554;-72
2022/11/16 02:53:20;;;;;;;18.85;13.10;;;;;;;;;;5023061;28;20054;-72
2022/11/16 02:55:46;;;;;;;16.25;12.77;;;;;;;;;;5009413;28;20054;-73
2022/11/16 02:58:15;;;;;;;21.52;13.43;;;;;;;;;;5012002;28;20050;-71
2022/11/16 03:00:50;;;;;;;18.23;13.73;;;;;;;;;;5025722;28;20528;-74
2022/11/16 03:03:20;;;;;;;18.77;13.32;;;;;;;;;;5015746;28;20086;-70
2022/11/16 03:05:48;;;;;;;16.92;13.20;;;;;;;;;;5018156;28;20049;-73
2022/11/16 03:08:33;;;;;;;18.85;13.88;;;;;;;;;;5010247;28;20061;-71
2022/11/16 03:13:47;;;;;;;18.50;12.23;;;;;;;;;;5015425;28;20046;-73
2022/11/16 03:16:17;;;;;;;16.52;12.32;;;;;;;;;;5008693;28;20050;-73
2022/11/16 03:18:45;;;;;;;17.25;11.48;;;;;;;;;;5010350;28;20840;-72
2022/11/16 03:21:15;;;;;;;17.08;11.80;;;;;;;;;;5013052;28;20046;-73
2022/11/16 03:23:42;;;;;;;14.48;11.82;;;;;;;;;;5022775;28;20049;-71
2022/11/16 03:26:10;;;;;;;12.82;10.13;;;;;;;;;;5018772;28;20570;-71
2022/11/16 03:28:42;;;;;;;14.85;11.65;;;;;;;;;;5017318;28;20065;-73
2022/11/16 03:31:14;;;;;;;13.98;11.13;;;;;;;;;;5015883;28;20129;-70
2022/11/16 03:33:43;;;;;;;13.65;10.43;;;;;;;;;;5014893;28;20105;-69
2022/11/16 03:36:15;;;;;;;15.32;11.88;;;;;;;;;;5020546;28;20974;-71
2022/11/16 03:38:43;;;;;;;13.73;11.13;;;;;;;;;;5017355;28;20050;-72
2022/11/16 03:41:09;;;;;;;15.00;11.85;;;;;;;;;;5018258;28;20057;-73
2022/11/16 03:43:37;;;;;;;14.02;10.52;;;;;;;;;;5007836;28;20053;-73
2022/11/16 03:46:04;;;;;;;17.48;12.18;;;;;;;;;;5022283;28;20507;-72
2022/11/16 03:48:34;;;;;;;18.13;12.40;;;;;;;;;;5021569;28;20054;-73
2022/11/16 03:51:02;;;;;;;15.57;12.27;;;;;;;;;;5024250;28;20053;-72
2022/11/16 03:53:28;;;;;;;15.10;12.23;;;;;;;;;;5022851;28;20050;-73
2022/11/16 03:55:55;;;;;;;14.77;11.35;;;;;;;;;;5002905;28;20105;-70
2022/11/16 03:58:21;;;;;;;18.20;12.02;;;;;;;;;;5002688;28;20996;-73
2022/11/16 04:00:47;;;;;;;15.18;11.80;;;;;;;;;;5011374;28;20061;-72
2022/11/16 04:03:14;;;;;;;19.02;11.50;;;;;;;;;;5006891;28;20053;-70
2022/11/16 04:25:08;;;;;;;18.80;12.15;;;;;;;;;;5002631;28;20429;-73
2022/11/16 04:30:20;;;;;;;15.65;11.05;;;;;;;;;;5021136;28;20566;-72
2022/11/16 04:38:16;;;;;;;14.77;9.35;;;;;;;;;;5003736;28;20509;-74
2022/11/16 04:40:42;;;;;;;14.52;8.75;;;;;;;;;;5010918;28;20046;-74
2022/11/16 04:43:09;;;;;;;15.57;7.50;;;;;;;;;;5007858;28;20054;-70
2022/11/16 04:48:20;;;;;;;9.35;6.97;;;;;;;;;;5015027;28;20057;-73
2022/11/16 04:50:47;;;;;;;11.30;6.63;;;;;;;;;;5020112;28;20516;-72
2022/11/16 04:53:13;;;;;;;14.13;6.90;;;;;;;;;;5035120;28;20586;-71
2022/11/16 04:55:39;;;;;;;10.18;6.45;;;;;;;;;;5006190;28;20058;-73
2022/11/16 04:58:06;;;;;;;10.15;6.38;;;;;;;;;;5021106;28;20057;-71
2022/11/16 05:00:32;;;;;;;9.27;6.03;;;;;;;;;;5021044;28;20065;-70
2022/11/16 05:02:58;;;;;;;9.73;6.25;;;;;;;;;;5014504;28;20054;-71
2022/11/16 05:05:27;;;;;;;9.27;5.97;;;;;;;;;;5004269;28;20496;-71
2022/11/16 05:07:53;;;;;;;14.85;6.93;;;;;;;;;;5003164;28;20053;-73
2022/11/16 05:10:19;;;;;;;8.23;6.30;;;;;;;;;;5019046;28;20496;-74
2022/11/16 05:12:46;;;;;;;10.45;6.03;;;;;;;;;;5020625;28;20049;-70
2022/11/16 05:15:12;;;;;;;10.68;6.53;;;;;;;;;;5019664;28;20053;-73
2022/11/16 05:17:38;;;;;;;9.55;6.68;;;;;;;;;;5011435;28;20057;-70
2022/11/16 05:22:54;;;;;;;10.18;7.05;;;;;;;;;;5015410;28;20500;-73
2022/11/16 05:25:20;;;;;;;8.75;6.95;;;;;;;;;;5011691;28;20058;-73
2022/11/16 05:27:46;;;;;;;15.27;7.45;;;;;;;;;;5019002;28;20054;-71
2022/11/16 05:30:13;;;;;;;9.43;6.90;;;;;;;;;;5011527;28;20070;-70
2022/11/16 05:32:39;;;;;;;9.23;7.22;;;;;;;;;;5013574;28;20116;-70
2022/11/16 05:35:06;;;;;;;12.52;7.85;;;;;;;;;;5025417;28;20503;-72
2022/11/16 05:37:32;;;;;;;9.85;7.60;;;;;;;;;;5016609;28;20073;-70
2022/11/16 05:39:58;;;;;;;10.45;7.45;;;;;;;;;;5017944;28;20500;-74
2022/11/16 05:42:25;;;;;;;12.45;7.38;;;;;;;;;;5023603;28;20100;-73
2022/11/16 05:44:51;;;;;;;15.05;7.57;;;;;;;;;;5005936;28;20562;-71
2022/11/16 05:47:17;;;;;;;14.60;7.72;;;;;;;;;;5006869;28;20054;-74
2022/11/16 05:49:43;;;;;;;12.13;7.97;;;;;;;;;;5031347;28;20586;-71
2022/11/16 05:52:10;;;;;;;10.68;7.88;;;;;;;;;;5030158;28;20057;-74
2022/11/16 05:54:36;;;;;;;16.38;7.55;;;;;;;;;;5009081;28;20151;-74
2022/11/16 05:57:03;;;;;;;14.75;8.35;;;;;;;;;;5008026;28;20054;-70
2022/11/16 05:59:29;;;;;;;16.70;7.40;;;;;;;;;;5010706;28;20062;-73
2022/11/16 06:01:56;;;;;;;12.73;8.70;;;;;;;;;;5012297;28;20577;-74
2022/11/16 06:04:22;;;;;;;13.73;8.27;;;;;;;;;;5018893;28;20058;-74
2022/11/16 06:06:49;;;;;;;15.20;10.27;;;;;;;;;;5014471;28;20129;-72
2022/11/16 06:09:15;;;;;;;11.88;9.18;;;;;;;;;;5010912;28;20681;-71
2022/11/16 06:11:42;;;;;;;14.80;9.35;;;;;;;;;;5024402;28;20084;-70
2022/11/16 06:14:08;;;;;;;13.30;9.23;;;;;;;;;;5007945;28;20046;-69
2022/11/16 06:16:34;;;;;;;17.27;9.98;;;;;;;;;;5005360;28;20101;-73
2022/11/16 06:19:00;;;;;;;22.08;10.93;;;;;;;;;;5016615;28;20109;-74
2022/11/16 06:21:27;;;;;;;15.85;11.55;;;;;;;;;;5005530;28;20054;-72
2022/11/16 06:23:53;;;;;;;19.60;11.18;;;;;;;;;;5013726;28;20858;-76
2022/11/16 06:26:20;;;;;;;22.05;11.23;;;;;;;;;;5004278;28;20547;-75
2022/11/16 06:28:46;;;;;;;16.65;11.00;;;;;;;;;;5013993;28;20054;-73
2022/11/16 06:31:12;;;;;;;18.50;12.15;;;;;;;;;;5022475;28;20049;-74
2022/11/16 06:33:38;;;;;;;16.30;11.23;;;;;;;;;;5021184;28;20085;-71
2022/11/16 06:36:05;;;;;;;20.77;12.68;;;;;;;;;;5014785;28;20539;-73
2022/11/16 06:38:31;;;;;;;19.63;12.02;;;;;;;;;;5020824;28;20472;-74
2022/11/16 06:40:58;;;;;;;20.27;11.80;;;;;;;;;;5020240;28;20097;-74
2022/11/16 06:43:25;;;;;;;20.10;12.63;;;;;;;;;;5022269;28;20500;-70
2022/11/16 06:45:53;;;;;;;14.68;11.15;;;;;;;;;;5008581;28;20046;-73
2022/11/16 06:48:19;;;;;;;24.05;12.00;;;;;;;;;;5017776;28;20088;-73
2022/11/16 06:50:49;;;;;;;17.35;11.02;;;;;;;;;;5028244;28;20457;-73
2022/11/16 06:53:16;;;;;;;21.13;12.48;;;;;;;;;;5018396;28;20089;-73
2022/11/16 06:55:42;;;;;;;18.13;12.27;;;;;;;;;;5018883;28;20057;-72
2022/11/16 06:58:08;;;;;;;21.95;12.40;;;;;;;;;;5022412;28;20531;-72
2022/11/16 07:00:35;;;;;;;18.42;12.30;;;;;;;;;;5019339;28;20076;-74
2022/11/16 07:03:02;;;;;;;17.88;11.93;;;;;;;;;;5022610;28;20340;-71
2022/11/16 07:05:29;;;;;;;22.35;12.55;;;;;;;;;;5020692;28;20054;-70
2022/11/16 07:07:55;;;;;;;19.33;12.55;;;;;;;;;;5020416;28;20058;-73
2022/11/16 07:10:22;;;;;;;18.50;11.80;;;;;;;;;;5032714;28;20049;-75
2022/11/16 07:12:48;;;;;;;18.27;11.32;;;;;;;;;;5026139;28;20046;-74
2022/11/16 07:15:14;;;;;;;19.05;12.90;;;;;;;;;;5015097;28;20050;-76
2022/11/16 07:17:41;;;;;;;19.33;11.95;;;;;;;;;;5031460;28;20226;-74
2022/11/16 07:20:08;;;;;;;18.50;12.15;;;;;;;;;;5021742;28;20057;-75
2022/11/16 07:22:34;;;;;;;20.85;12.25;;;;;;;;;;5022317;28;20050;-72
2022/11/16 07:25:00;;;;;;;17.15;11.27;;;;;;;;;;5028854;28;20076;-74
2022/11/16 07:27:26;;;;;;;20.88;11.93;;;;;;;;;;5029084;28;20065;-74
2022/11/16 07:29:53;;;;;;;19.10;10.80;;;;;;;;;;5030085;28;20539;-72
2022/11/16 07:32:19;;;;;;;17.85;10.52;;;;;;;;;;5022147;28;20056;-74
2022/11/16 07:34:45;;;;;;;15.73;9.82;;;;;;;;;;5009700;28;20136;-73
2022/11/16 07:37:12;;;;;;;18.00;9.68;;;;;;;;;;5022299;28;20089;-72
2022/11/16 07:39:38;;;;;;;15.63;8.63;;;;;;;;;;5025793;28;20478;-73
2022/11/16 07:42:10;;;;;;;14.82;8.35;;;;;;;;;;5022814;28;20057;-72
2022/11/16 07:44:37;;;;;;;13.88;7.90;;;;;;;;;;5020139;28;20486;-74
2022/11/16 07:47:04;;;;;;;19.10;7.15;;;;;;;;;;5029163;28;20105;-74
2022/11/16 07:49:30;;;;;;;12.90;6.63;;;;;;;;;;5035792;28;20464;-73
2022/11/16 07:51:57;;;;;;;11.77;5.45;;;;;;;;;;5020501;28;20054;-70
2022/11/16 07:54:23;;;;;;;9.82;5.78;;;;;;;;;;5012807;28;20560;-71
2022/11/16 07:56:49;;;;;;;10.65;5.38;;;;;;;;;;5009149;28;20054;-73
2022/11/16 07:59:16;;;;;;;9.88;5.22;;;;;;;;;;5016221;28;20070;-70
2022/11/16 08:01:45;;;;;;;9.55;5.20;;;;;;;;;;5011259;28;20054;-74
2022/11/16 08:04:14;;;;;;;9.93;5.25;;;;;;;;;;5020276;28;20057;-73
2022/11/16 08:06:40;;;;;;;5.70;4.57;;;;;;;;;;5031860;28;20132;-74
2022/11/16 08:09:07;;;;;;;9.40;4.88;;;;;;;;;;5023900;28;20517;-74
2022/11/16 08:11:34;;;;;;;9.45;4.68;;;;;;;;;;5031898;28;20049;-71
2022/11/16 08:14:00;;;;;;;10.85;4.90;;;;;;;;;;5021325;28;20546;-70
2022/11/16 08:16:26;;;;;;;9.90;3.92;;;;;;;;;;5018272;28;20153;-75
2022/11/16 08:18:53;;;;;;;8.40;3.70;;;;;;;;;;5015665;28;20544;-73
2022/11/16 08:21:19;;;;;;;8.77;3.83;;;;;;;;;;5016678;28;20054;-73
2022/11/16 08:23:46;;;;;;;11.10;3.45;;;;;;;;;;5020433;28;20132;-74
2022/11/16 08:26:14;;;;;;;14.38;3.45;;;;;;;;;;5015878;28;20043;-72
2022/11/16 08:28:42;;;;;;;11.05;3.97;;;;;;;;;;5002072;28;20572;-70
2022/11/16 08:31:09;;;;;;;14.18;4.28;;;;;;;;;;5010090;28;20051;-74
2022/11/16 08:33:36;;;;;;;8.45;3.40;;;;;;;;;;5034277;28;20107;-74
2022/11/16 08:36:03;;;;;;;9.68;3.17;;;;;;;;;;5027011;28;20478;-74
2022/11/16 08:38:36;;;;;;;11.13;3.63;;;;;;;;;;5028079;28;20445;-73
2022/11/16 08:41:02;;;;;;;7.65;3.13;;;;;;;;;;5038054;28;20052;-71
2022/11/16 08:43:29;;;;;;;14.20;2.90;;;;;;;;;;5040958;28;20053;-72
2022/11/16 08:45:57;;;;;;;11.93;3.25;;;;;;;;;;5017485;28;20509;-75
2022/11/16 08:48:23;;;;;;;6.55;3.20;;;;;;;;;;5025483;28;20049;-73
2022/11/16 08:50:49;;;;;;;8.70;3.30;;;;;;;;;;5024167;28;20100;-75
2022/11/16 08:53:35;;;;;;;6.20;3.20;;;;;;;;;;5031846;28;20055;-74
2022/11/16 08:56:03;;;;;;;14.15;4.72;;;;;;;;;;5042074;28;20053;-74
2022/11/16 08:58:29;;;;;;;10.52;3.70;;;;;;;;;;5040263;28;20108;-75
2022/11/16 09:00:57;;;;;;;12.02;3.78;;;;;;;;;;5035612;28;20483;-74
2022/11/16 09:03:23;;;;;;;11.25;3.92;;;;;;;;;;5034084;28;20057;-73
2022/11/16 09:05:49;;;;;;;11.60;4.40;;;;;;;;;;5025207;28;20046;-77
2022/11/16 09:08:15;;;;;;;6.55;3.85;;;;;;;;;;5022592;28;20049;-73
2022/11/16 09:10:42;;;;;;;9.32;4.38;;;;;;;;;;5023457;28;20519;-71
2022/11/16 09:13:08;;;;;;;8.65;3.83;;;;;;;;;;5008764;28;20373;-74
2022/11/16 09:15:34;;;;;;;8.48;4.40;;;;;;;;;;5041344;28;20100;-71
2022/11/16 09:18:00;;;;;;;11.77;4.50;;;;;;;;;;5033865;28;20057;-74
2022/11/16 09:20:28;;;;;;;14.55;5.07;;;;;;;;;;5023251;28;20096;-74
2022/11/16 09:22:54;;;;;;;10.52;5.18;;;;;;;;;;5024783;28;20050;-72
2022/11/16 09:25:22;;;;;;;10.63;4.78;;;;;;;;;;5025519;28;20077;-74
2022/11/16 09:27:48;;;;;;;8.63;3.90;;;;;;;;;;5017679;28;20050;-70
2022/11/16 09:30:15;;;;;;;13.55;3.80;;;;;;;;;;5004011;28;20054;-73
2022/11/16 09:32:41;;;;;;;11.02;4.80;;;;;;;;;;5041644;28;20856;-75
2022/11/16 09:35:08;;;;;;;9.35;4.47;;;;;;;;;;5035615;28;20474;-74
2022/11/16 09:37:34;;;;;;;9.85;3.90;;;;;;;;;;5021075;28;20054;-75
2022/11/16 09:40:00;;;;;;;15.05;3.75;;;;;;;;;;5022858;28;20050;-74
2022/11/16 09:42:33;;;;;;;12.32;3.92;;;;;;;;;;5033722;28;20124;-74
2022/11/16 09:45:29;;;;;;;10.65;3.70;;;;;;;;;;5018678;28;20053;-74
2022/11/16 09:47:58;;;;;;;9.30;4.13;;;;;;;;;;5029656;28;20058;-73
2022/11/16 09:50:24;;;;;;;10.70;4.65;;;;;;;;;;5034024;28;20061;-72
2022/11/16 09:52:52;;;;;;;13.88;3.53;;;;;;;;;;5026634;28;20060;-73
2022/11/16 09:55:30;;;;;;;7.78;3.53;;;;;;;;;;5033660;28;20084;-73
2022/11/16 09:57:58;;;;;;;10.70;3.60;;;;;;;;;;5027805;28;20054;-72
2022/11/16 10:00:25;;;;;;;6.45;3.10;;;;;;;;;;5030728;28;20050;-72
2022/11/16 10:03:04;;;;;;;17.63;3.72;;;;;;;;;;5017628;28;20057;-72
2022/11/16 10:06:03;;;;;;;7.68;2.80;;;;;;;;;;5023465;28;20919;-70
2022/11/16 10:08:38;;;;;;;7.53;3.20;;;;;;;;;;5031938;28;20579;-73
2022/11/16 10:11:08;;;;;;;6.70;3.15;;;;;;;;;;5021711;28;20057;-72
2022/11/16 10:13:41;;;;;;;9.10;3.72;;;;;;;;;;5023519;28;20085;-70
2022/11/16 10:16:25;;;;;;;12.95;3.67;;;;;;;;;;5019756;28;20053;-72
2022/11/16 10:18:54;;;;;;;9.27;3.08;;;;;;;;;;5036226;28;20112;-73
2022/11/16 10:21:42;;;;;;;10.35;3.33;;;;;;;;;;5008791;28;20070;-69
2022/11/16 10:24:25;;;;;;;14.55;3.38;;;;;;;;;;5014371;28;20054;-72
2022/11/16 10:27:10;;;;;;;7.78;2.58;;;;;;;;;;5024783;28;20045;-72
2022/11/16 10:29:42;;;;;;;12.10;2.70;;;;;;;;;;5048493;28;20754;-71
2022/11/16 10:32:12;;;;;;;18.60;4.05;;;;;;;;;;5028928;28;20056;-71
2022/11/16 10:34:41;;;;;;;7.85;2.70;;;;;;;;;;5034567;28;20108;-70
2022/11/16 10:37:11;;;;;;;9.73;2.75;;;;;;;;;;5010733;28;20054;-71
2022/11/16 10:39:39;;;;;;;7.00;2.65;;;;;;;;;;5031930;28;20061;-72
2022/11/16 10:42:10;;;;;;;5.53;2.20;;;;;;;;;;5022298;28;20058;-69
2022/11/16 10:44:40;;;;;;;9.40;2.47;;;;;;;;;;5023357;28;20057;-70
2022/11/16 10:47:17;;;;;;;11.18;2.85;;;;;;;;;;5024508;28;20658;-70
2022/11/16 10:49:58;;;;;;;6.55;2.78;;;;;;;;;;5018106;28;20524;-70
2022/11/16 10:52:24;;;;;;;10.38;2.53;;;;;;;;;;5019365;28;20054;-71
2022/11/16 10:54:51;;;;;;;6.40;2.15;;;;;;;;;;5004049;28;20051;-70
2022/11/16 10:57:17;;;;;;;9.13;2.22;;;;;;;;;;5013093;28;20054;-71
2022/11/16 10:59:48;;;;;;;10.32;2.80;;;;;;;;;;5024056;28;20049;-73
2022/11/16 11:02:34;;;;;;;6.63;2.00;;;;;;;;;;5021509;28;20120;-72
2022/11/16 11:05:01;;;;;;;5.90;2.30;;;;;;;;;;5034155;28;20050;-69
2022/11/16 11:07:31;;;;;;;10.13;2.88;;;;;;;;;;5033719;28;20644;-72
2022/11/16 11:09:58;;;;;;;7.80;2.65;;;;;;;;;;5028219;28;20472;-72
2022/11/16 11:12:37;;;;;;;5.88;2.47;;;;;;;;;;5021861;28;20285;-72
2022/11/16 11:15:04;;;;;;;5.55;2.67;;;;;;;;;;5019060;28;20050;-70
2022/11/16 11:17:32;;;;;;;8.48;2.30;;;;;;;;;;5019259;28;20058;-71
2022/11/16 11:20:04;;;;;;;8.07;2.75;;;;;;;;;;5032206;28;20115;-73
2022/11/16 11:22:32;;;;;;;5.45;1.90;;;;;;;;;;5042773;28;20206;-69
2022/11/16 11:25:00;;;;;;;6.97;2.40;;;;;;;;;;5021376;28;20531;-69
2022/11/16 11:27:29;;;;;;;9.75;2.10;;;;;;;;;;5021383;28;20054;-69
2022/11/16 11:29:57;;;;;;;5.53;2.20;;;;;;;;;;5002992;28;20499;-69
2022/11/16 11:32:31;;;;;;;11.13;2.17;;;;;;;;;;5003414;28;20142;-72
2022/11/16 11:34:59;;;;;;;12.80;2.30;;;;;;;;;;5023743;28;20063;-73
2022/11/16 11:37:33;;;;;;;5.25;2.25;;;;;;;;;;5027365;28;20049;-72
2022/11/16 11:40:04;;;;;;;5.43;2.33;;;;;;;;;;5017642;28;20046;-71
2022/11/16 11:42:30;;;;;;;5.95;1.92;;;;;;;;;;5021807;28;20567;-72
2022/11/16 11:44:59;;;;;;;7.45;2.30;;;;;;;;;;5026339;28;20061;-72
2022/11/16 11:47:31;;;;;;;7.75;2.17;;;;;;;;;;5022173;28;20524;-71
2022/11/16 11:50:23;;;;;;;6.07;2.15;;;;;;;;;;5013125;28;20050;-70
2022/11/16 11:53:01;;;;;;;5.65;2.17;;;;;;;;;;5007023;28;20479;-71
2022/11/16 11:55:28;;;;;;;9.38;2.08;;;;;;;;;;5022373;28;20058;-72
2022/11/16 11:57:54;;;;;;;7.75;2.20;;;;;;;;;;5019260;28;20080;-70
2022/11/16 12:00:22;;;;;;;6.10;2.22;;;;;;;;;;5020044;28;20052;-73
2022/11/16 12:02:51;;;;;;;10.90;2.50;;;;;;;;;;5021095;28;20050;-71
2022/11/16 12:05:25;;;;;;;5.65;2.15;;;;;;;;;;5014405;28;20780;-72
2022/11/16 12:08:05;;;;;;;11.35;2.60;;;;;;;;;;5029646;28;20058;-73
2022/11/16 12:10:42;;;;;;;8.32;2.00;;;;;;;;;;5026218;28;20046;-72
2022/11/16 12:13:29;;;;;;;9.35;2.40;;;;;;;;;;5016762;28;20112;-71
2022/11/16 12:16:11;;;;;;;8.43;2.05;;;;;;;;;;5045940;28;20601;-72
2022/11/16 12:18:38;;;;;;;7.28;2.13;;;;;;;;;;5037250;28;20104;-70
2022/11/16 12:21:12;;;;;;;12.40;1.77;;;;;;;;;;5034374;28;20144;-71
2022/11/16 12:23:54;;;;;;;3.50;1.50;;;;;;;;;;5025182;28;20486;-72
2022/11/16 12:26:23;;;;;;;9.88;1.92;;;;;;;;;;5022197;28;20054;-71
2022/11/16 12:29:08;;;;;;;8.57;2.03;;;;;;;;;;5042497;28;20057;-73
2022/11/16 12:31:43;;;;;;;9.93;2.87;;;;;;;;;;5022684;28;20061;-72
2022/11/16 12:34:10;;;;;;;;;;;;;;;;;;5024735;28;20053;-72
2022/11/16 12:36:48;;;;;;;6.93;2.13;;;;;;;;;;5022816;28;46681;-70
2022/11/16 12:39:14;;;;;;;9.27;2.58;;;;;;;;;;5023673;28;20064;-69
2022/11/16 12:41:56;;;;;;;8.68;1.55;;;;;;;;;;5027830;28;20084;-70
2022/11/16 12:44:28;;;;;;;7.30;2.15;;;;;;;;;;5022959;28;20102;-71
2022/11/16 12:47:01;;;;;;;8.45;1.85;;;;;;;;;;5031253;28;20053;-72
2022/11/16 12:49:27;;;;;;;8.60;2.17;;;;;;;;;;5020764;28;20522;-72
2022/11/16 12:51:54;;;;;;;5.95;1.90;;;;;;;;;;5022896;28;20053;-70
2022/11/16 12:54:26;;;;;;;4.00;1.40;;;;;;;;;;5025719;28;20519;-71
2022/11/16 12:56:52;;;;;;;4.93;1.88;;;;;;;;;;5023436;28;20671;-72
2022/11/16 12:59:25;;;;;;;5.80;1.67;;;;;;;;;;5028850;28;20643;-70
2022/11/16 13:01:54;;;;;;;5.97;1.80;;;;;;;;;;5024404;28;20053;-72
2022/11/16 13:04:39;;;;;;;4.63;1.35;;;;;;;;;;5040519;28;20108;-73
2022/11/16 13:07:27;;;;;;;4.40;1.23;;;;;;;;;;5033826;28;20089;-72
2022/11/16 13:10:01;;;;;;;5.28;1.40;;;;;;;;;;5022267;28;20054;-70
2022/11/16 13:12:29;;;;;;;5.22;1.35;;;;;;;;;;5019745;28;20053;-72
2022/11/16 13:14:56;;;;;;;4.55;1.40;;;;;;;;;;5018711;28;20058;-73
2022/11/16 13:17:22;;;;;;;4.82;1.90;;;;;;;;;;5011623;28;20500;-72
2022/11/16 13:20:15;;;;;;;3.05;1.30;;;;;;;;;;5020724;28;20050;-72
2022/11/16 13:22:49;;;;;;;4.32;1.30;;;;;;;;;;5020628;28;20060;-69
2022/11/16 13:25:34;;;;;;;4.32;1.88;;;;;;;;;;5018520;28;20060;-73
2022/11/16 13:28:18;;;;;;;6.70;1.17;;;;;;;;;;5021764;28;20512;-72
2022/11/16 13:31:03;;;;;;;6.07;1.33;;;;;;;;;;5024055;28;20104;-72
2022/11/16 13:33:39;;;;;;;6.05;1.70;;;;;;;;;;5034767;28;20534;-73
2022/11/16 13:36:24;;;;;;;10.73;1.83;;;;;;;;;;5018709;28;20085;-73
2022/11/16 13:38:52;;;;;;;3.15;1.27;;;;;;;;;;5012719;28;20055;-72
2022/11/16 13:41:33;;;;;;;2.88;1.20;;;;;;;;;;5031166;28;20049;-72
2022/11/16 13:43:59;;;;;;;5.50;2.20;;;;;;;;;;5021510;28;20058;-69
2022/11/16 13:46:39;;;;;;;4.35;1.50;;;;;;;;;;5017982;28;20048;-70
2022/11/16 13:49:32;;;;;;;5.78;1.10;;;;;;;;;;5007002;28;20121;-71
2022/11/16 13:51:59;;;;;;;8.52;1.33;;;;;;;;;;5025894;28;20058;-72
2022/11/16 13:54:47;;;;;;;4.55;1.13;;;;;;;;;;5024142;28;20084;-69
2022/11/16 13:57:20;;;;;;;5.80;2.50;;;;;;;;;;5044034;28;20107;-69
2022/11/16 13:59:47;;;;;;;3.83;1.40;;;;;;;;;;5038768;28;20060;-69
2022/11/16 14:02:29;;;;;;;5.07;1.60;;;;;;;;;;5037903;28;20577;-70
2022/11/16 14:05:00;;;;;;;7.22;1.70;;;;;;;;;;5037245;28;20064;-72
2022/11/16 14:07:29;;;;;;;5.25;1.15;;;;;;;;;;5030192;28;20053;-69
2022/11/16 14:09:56;;;;;;;5.95;1.83;;;;;;;;;;5017567;28;20617;-73
2022/11/16 14:12:45;;;;;;;6.82;1.90;;;;;;;;;;5043903;28;20111;-71
2022/11/16 14:15:15;;;;;;;5.32;1.80;;;;;;;;;;5015823;28;20105;-70
2022/11/16 14:17:47;;;;;;;7.45;2.10;;;;;;;;;;5018982;28;20492;-70
2022/11/16 14:20:15;;;;;;;3.78;1.58;;;;;;;;;;5023821;28;20050;-68
2022/11/16 14:22:53;;;;;;;7.65;1.65;;;;;;;;;;5023361;28;20100;-68
2022/11/16 14:25:19;;;;;;;6.10;1.85;;;;;;;;;;5023682;28;20535;-72
2022/11/16 14:27:58;;;;;;;7.07;1.33;;;;;;;;;;5032466;28;20504;-70
2022/11/16 14:30:27;;;;;;;3.92;1.77;;;;;;;;;;5029103;28;20049;-68
2022/11/16 14:32:54;;;;;;;13.05;2.30;;;;;;;;;;5043634;28;20386;-71
2022/11/16 14:35:30;;;;;;;6.20;1.63;;;;;;;;;;5037906;28;20057;-70
2022/11/16 14:37:56;;;;;;;;;;;;;;;;;;5027919;28;20226;-70
2022/11/16 14:40:22;;;;;;;6.20;2.10;;;;;;;;;;5022877;28;45534;-71
2022/11/16 14:42:57;;;;;;;7.15;1.65;;;;;;;;;;5028150;28;20528;-71
2022/11/16 14:45:45;;;;;;;5.43;2.20;;;;;;;;;;5031202;28;20057;-69
2022/11/16 14:48:16;;;;;;;5.00;1.48;;;;;;;;;;5033350;28;20057;-71
2022/11/16 14:50:43;;;;;;;5.25;1.45;;;;;;;;;;5020708;28;20467;-71
2022/11/16 14:53:13;;;;;;;6.18;2.22;;;;;;;;;;5035720;28;20585;-71
2022/11/16 14:55:41;;;;;;;4.40;1.65;;;;;;;;;;5024447;28;20069;-71
2022/11/16 14:58:17;;;;;;;7.03;1.60;;;;;;;;;;5005701;28;20536;-72
2022/11/16 15:00:51;;;;;;;5.22;1.73;;;;;;;;;;5019426;28;20049;-71
2022/11/16 15:03:17;;;;;;;5.70;1.77;;;;;;;;;;5026947;28;20056;-73
2022/11/16 15:05:43;;;;;;;5.03;1.77;;;;;;;;;;5003360;28;20527;-73
2022/11/16 15:08:15;;;;;;;4.13;1.42;;;;;;;;;;5009583;28;20050;-70
2022/11/16 15:10:43;;;;;;;5.90;1.50;;;;;;;;;;5007237;28;20547;-71
2022/11/16 15:13:21;;;;;;;5.45;1.70;;;;;;;;;;5023420;28;20060;-72
2022/11/16 15:15:49;;;;;;;6.13;1.70;;;;;;;;;;5028240;28;20056;-71
2022/11/16 15:18:16;;;;;;;10.50;3.55;;;;;;;;;;5037558;28;20470;-71
2022/11/16 15:20:47;;;;;;;7.65;2.10;;;;;;;;;;5014261;28;20107;-73
2022/11/16 15:23:14;;;;;;;5.22;2.33;;;;;;;;;;5024996;28;20066;-72
2022/11/16 15:25:42;;;;;;;10.45;1.83;;;;;;;;;;5024744;28;20057;-72
2022/11/16 15:28:16;;;;;;;4.60;2.10;;;;;;;;;;5022080;28;20054;-72
2022/11/16 15:30:50;;;;;;;5.18;1.75;;;;;;;;;;5017741;28;20057;-72
2022/11/16 15:33:18;;;;;;;5.18;1.90;;;;;;;;;;5022470;28;20054;-72
2022/11/16 15:35:46;;;;;;;4.47;1.92;;;;;;;;;;5022248;28;20523;-73
2022/11/16 15:38:14;;;;;;;9.70;2.35;;;;;;;;;;5021829;28;20073;-72
2022/11/16 15:40:42;;;;;;;7.40;2.25;;;;;;;;;;5035409;28;20054;-73
2022/11/16 15:43:09;;;;;;;11.20;3.05;;;;;;;;;;5029789;28;20108;-73
2022/11/16 15:45:36;;;;;;;6.93;2.13;;;;;;;;;;5017302;28;20062;-74
2022/11/16 15:48:03;;;;;;;5.45;2.35;;;;;;;;;;5016879;28;20091;-73
2022/11/16 15:50:30;;;;;;;7.13;2.58;;;;;;;;;;5024128;28;20045;-73
2022/11/16 15:52:58;;;;;;;9.55;2.70;;;;;;;;;;5023773;28;20050;-72
2022/11/16 15:55:34;;;;;;;15.68;3.40;;;;;;;;;;5019885;28;20725;-72
2022/11/16 15:58:26;;;;;;;6.80;2.60;;;;;;;;;;5022664;28;20054;-72
2022/11/16 16:00:53;;;;;;;10.23;3.40;;;;;;;;;;5008213;28;20050;-72
2022/11/16 16:03:22;;;;;;;5.45;2.30;;;;;;;;;;5021045;28;20054;-73
2022/11/16 16:05:48;;;;;;;9.85;2.85;;;;;;;;;;5020210;28;20060;-73
2022/11/16 16:08:44;;;;;;;6.78;3.10;;;;;;;;;;5021048;28;20054;-72
2022/11/16 16:11:10;;;;;;;4.72;2.30;;;;;;;;;;5012766;28;20061;-72
2022/11/16 16:13:36;;;;;;;4.75;2.55;;;;;;;;;;5008741;28;20050;-72
2022/11/16 16:16:15;;;;;;;10.38;2.63;;;;;;;;;;5015096;28;20579;-71
2022/11/16 16:18:42;;;;;;;7.20;2.67;;;;;;;;;;5020544;28;20057;-71
2022/11/16 16:21:09;;;;;;;7.53;2.55;;;;;;;;;;5025781;28;20668;-72
2022/11/16 16:23:46;;;;;;;6.97;2.65;;;;;;;;;;5020790;28;20145;-71
2022/11/16 16:26:13;;;;;;;8.00;3.22;;;;;;;;;;5022127;28;20054;-72
2022/11/16 16:28:39;;;;;;;4.72;2.80;;;;;;;;;;5020760;28;20068;-72
2022/11/16 16:31:06;;;;;;;9.98;2.60;;;;;;;;;;5015806;28;20046;-72
2022/11/16 16:33:33;;;;;;;15.00;3.40;;;;;;;;;;5011934;28;20046;-72
2022/11/16 16:36:00;;;;;;;12.85;3.50;;;;;;;;;;5020806;28;20053;-71
2022/11/16 16:38:27;;;;;;;9.68;3.70;;;;;;;;;;5025850;28;20050;-72
2022/11/16 16:41:02;;;;;;;9.50;4.80;;;;;;;;;;5023716;28;20053;-73
2022/11/16 16:43:29;;;;;;;8.45;2.63;;;;;;;;;;5016743;28;20050;-72
2022/11/16 16:45:56;;;;;;;4.97;3.17;;;;;;;;;;5007281;28;20467;-72
2022/11/16 16:48:22;;;;;;;11.02;4.90;;;;;;;;;;5020033;28;20054;-74
2022/11/16 16:50:48;;;;;;;10.15;3.70;;;;;;;;;;5022254;28;20057;-73
2022/11/16 16:53:15;;;;;;;6.55;2.75;;;;;;;;;;5020588;28;20065;-71